sensor_id;sensor_type;location;lat;lon;timestamp;P1;durP1;ratioP1;P2;durP2;ratioP2
19985;SDS011;10154;52.474;10.768;2023-10-13T00:01:21;31.03;;;12.93;;
19985;SDS011;10154;52.474;10.768;2023-10-13T00:03:49;27.47;;;12.67;;
19985;SDS011;10154;52.474;10.768;2023-10-13T00:06:17;27.47;;;12.70;;
19985;SDS011;10154;52.474;10.768;2023-10-13T00:08:43;28.83;;;12.73;;
19985;SDS011;10154;52.474;10.768;2023-10-13T00:11:13;25.13;;;12.40;;
19985;SDS011;10154;52.474;10.768;2023-10-13T00:13:38;23.80;;;12.97;;
19985;SDS011;10154;52.474;10.768;2023-10-13T00:16:16;27.27;;;12.20;;
19985;SDS011;10154;52.474;10.768;2023-10-13T00:18:46;28.93;;;12.40;;
19985;SDS011;10154;52.474;10.768;2023-10-13T00:21:11;26.40;;;12.43;;
19985;SDS011;10154;52.474;10.768;2023-10-13T00:23:45;26.80;;;11.80;;
19985;SDS011;10154;52.474;10.768;2023-10-13T00:26:24;24.87;;;11.40;;
19985;SDS011;10154;52.474;10.768;2023-10-13T00:28:59;21.27;;;11.17;;
19985;SDS011;10154;52.474;10.768;2023-10-13T00:31:38;27.93;;;13.00;;
19985;SDS011;10154;52.474;10.768;2023-10-13T00:34:13;25.30;;;12.67;;
19985;SDS011;10154;52.474;10.768;2023-10-13T00:36:50;26.87;;;12.50;;
19985;SDS011;10154;52.474;10.768;2023-10-13T00:39:34;24.90;;;12.00;;
19985;SDS011;10154;52.474;10.768;2023-10-13T00:42:04;25.33;;;11.63;;
19985;SDS011;10154;52.474;10.768;2023-10-13T00:44:34;26.10;;;12.13;;
19985;SDS011;10154;52.474;10.768;2023-10-13T00:47:28;24.57;;;11.40;;
19985;SDS011;10154;52.474;10.768;2023-10-13T00:50:06;27.03;;;11.70;;
19985;SDS011;10154;52.474;10.768;2023-10-13T00:52:36;25.63;;;12.20;;
19985;SDS011;10154;52.474;10.768;2023-10-13T00:55:06;24.77;;;12.43;;
19985;SDS011;10154;52.474;10.768;2023-10-13T00:57:34;26.00;;;12.17;;
19985;SDS011;10154;52.474;10.768;2023-10-13T00:59:59;32.87;;;14.53;;
19985;SDS011;10154;52.474;10.768;2023-10-13T01:02:37;40.17;;;15.07;;
19985;SDS011;10154;52.474;10.768;2023-10-13T01:05:06;32.57;;;15.50;;
19985;SDS011;10154;52.474;10.768;2023-10-13T01:07:36;29.80;;;14.77;;
19985;SDS011;10154;52.474;10.768;2023-10-13T01:10:04;33.07;;;15.40;;
19985;SDS011;10154;52.474;10.768;2023-10-13T01:12:34;34.97;;;14.67;;
19985;SDS011;10154;52.474;10.768;2023-10-13T01:14:59;32.57;;;16.33;;
19985;SDS011;10154;52.474;10.768;2023-10-13T01:17:36;38.10;;;14.67;;
19985;SDS011;10154;52.474;10.768;2023-10-13T01:20:02;30.93;;;15.30;;
19985;SDS011;10154;52.474;10.768;2023-10-13T01:22:29;35.37;;;15.87;;
19985;SDS011;10154;52.474;10.768;2023-10-13T01:24:56;32.47;;;14.57;;
19985;SDS011;10154;52.474;10.768;2023-10-13T01:27:39;28.23;;;13.77;;
19985;SDS011;10154;52.474;10.768;2023-10-13T01:30:05;26.97;;;13.67;;
19985;SDS011;10154;52.474;10.768;2023-10-13T02:36:32;21.53;;;9.37;;
19985;SDS011;10154;52.474;10.768;2023-10-13T02:39:08;15.70;;;8.13;;
19985;SDS011;10154;52.474;10.768;2023-10-13T02:41:34;16.90;;;8.47;;
19985;SDS011;10154;52.474;10.768;2023-10-13T02:44:03;16.77;;;8.47;;
19985;SDS011;10154;52.474;10.768;2023-10-13T02:46:33;16.07;;;8.60;;
19985;SDS011;10154;52.474;10.768;2023-10-13T02:49:04;17.10;;;8.10;;
19985;SDS011;10154;52.474;10.768;2023-10-13T02:51:36;17.47;;;8.40;;
19985;SDS011;10154;52.474;10.768;2023-10-13T02:54:05;16.83;;;8.10;;
19985;SDS011;10154;52.474;10.768;2023-10-13T02:56:39;16.67;;;8.10;;
19985;SDS011;10154;52.474;10.768;2023-10-13T02:59:34;13.37;;;8.27;;
19985;SDS011;10154;52.474;10.768;2023-10-13T03:02:02;15.37;;;7.50;;
19985;SDS011;10154;52.474;10.768;2023-10-13T03:04:48;19.37;;;7.87;;
19985;SDS011;10154;52.474;10.768;2023-10-13T03:07:13;13.97;;;7.60;;
19985;SDS011;10154;52.474;10.768;2023-10-13T03:09:51;16.97;;;8.43;;
19985;SDS011;10154;52.474;10.768;2023-10-13T03:12:17;14.50;;;8.27;;
19985;SDS011;10154;52.474;10.768;2023-10-13T03:14:46;16.97;;;7.50;;
19985;SDS011;10154;52.474;10.768;2023-10-13T03:17:20;14.70;;;7.77;;
19985;SDS011;10154;52.474;10.768;2023-10-13T03:19:58;14.20;;;7.37;;
19985;SDS011;10154;52.474;10.768;2023-10-13T03:22:23;19.10;;;7.93;;
19985;SDS011;10154;52.474;10.768;2023-10-13T03:24:55;15.03;;;8.00;;
19985;SDS011;10154;52.474;10.768;2023-10-13T03:27:25;16.17;;;7.43;;
19985;SDS011;10154;52.474;10.768;2023-10-13T03:30:04;14.43;;;7.97;;
19985;SDS011;10154;52.474;10.768;2023-10-13T03:32:35;15.27;;;7.13;;
19985;SDS011;10154;52.474;10.768;2023-10-13T03:35:07;16.00;;;7.10;;
19985;SDS011;10154;52.474;10.768;2023-10-13T03:37:38;18.20;;;7.23;;
19985;SDS011;10154;52.474;10.768;2023-10-13T03:40:08;16.67;;;7.27;;
19985;SDS011;10154;52.474;10.768;2023-10-13T03:42:54;16.30;;;7.47;;
19985;SDS011;10154;52.474;10.768;2023-10-13T03:45:30;14.00;;;8.33;;
19985;SDS011;10154;52.474;10.768;2023-10-13T03:48:03;14.60;;;7.50;;
19985;SDS011;10154;52.474;10.768;2023-10-13T03:50:34;15.80;;;7.27;;
19985;SDS011;10154;52.474;10.768;2023-10-13T03:53:11;13.17;;;7.40;;
19985;SDS011;10154;52.474;10.768;2023-10-13T03:55:38;14.50;;;7.23;;
19985;SDS011;10154;52.474;10.768;2023-10-13T03:58:04;15.07;;;7.90;;
19985;SDS011;10154;52.474;10.768;2023-10-13T04:00:29;12.87;;;7.50;;
19985;SDS011;10154;52.474;10.768;2023-10-13T04:02:56;13.90;;;6.80;;
19985;SDS011;10154;52.474;10.768;2023-10-13T04:05:34;12.97;;;7.53;;
19985;SDS011;10154;52.474;10.768;2023-10-13T04:08:09;14.57;;;7.17;;
19985;SDS011;10154;52.474;10.768;2023-10-13T04:10:53;15.50;;;7.63;;
19985;SDS011;10154;52.474;10.768;2023-10-13T04:13:19;14.87;;;7.33;;
19985;SDS011;10154;52.474;10.768;2023-10-13T04:15:45;13.23;;;7.57;;
19985;SDS011;10154;52.474;10.768;2023-10-13T04:18:29;15.63;;;7.30;;
19985;SDS011;10154;52.474;10.768;2023-10-13T04:21:16;15.13;;;7.17;;
19985;SDS011;10154;52.474;10.768;2023-10-13T04:24:11;14.10;;;6.43;;
19985;SDS011;10154;52.474;10.768;2023-10-13T04:26:43;13.20;;;6.87;;
19985;SDS011;10154;52.474;10.768;2023-10-13T04:29:28;17.90;;;7.17;;
19985;SDS011;10154;52.474;10.768;2023-10-13T04:32:11;12.07;;;6.83;;
19985;SDS011;10154;52.474;10.768;2023-10-13T04:34:40;14.80;;;6.20;;
19985;SDS011;10154;52.474;10.768;2023-10-13T04:37:10;14.13;;;7.27;;
19985;SDS011;10154;52.474;10.768;2023-10-13T04:39:54;15.97;;;7.27;;
19985;SDS011;10154;52.474;10.768;2023-10-13T04:42:24;18.00;;;7.83;;
19985;SDS011;10154;52.474;10.768;2023-10-13T04:45:13;13.17;;;7.47;;
19985;SDS011;10154;52.474;10.768;2023-10-13T04:47:53;13.67;;;7.13;;
19985;SDS011;10154;52.474;10.768;2023-10-13T04:50:23;12.20;;;7.23;;
19985;SDS011;10154;52.474;10.768;2023-10-13T04:52:59;14.87;;;7.50;;
19985;SDS011;10154;52.474;10.768;2023-10-13T04:55:27;14.70;;;7.50;;
19985;SDS011;10154;52.474;10.768;2023-10-13T04:58:17;12.67;;;7.47;;
19985;SDS011;10154;52.474;10.768;2023-10-13T05:01:06;18.10;;;7.83;;
19985;SDS011;10154;52.474;10.768;2023-10-13T05:03:49;14.60;;;7.50;;
19985;SDS011;10154;52.474;10.768;2023-10-13T05:06:35;15.43;;;8.60;;
19985;SDS011;10154;52.474;10.768;2023-10-13T05:09:13;14.97;;;7.60;;
19985;SDS011;10154;52.474;10.768;2023-10-13T05:11:57;20.63;;;7.50;;
19985;SDS011;10154;52.474;10.768;2023-10-13T05:14:41;14.27;;;8.63;;
19985;SDS011;10154;52.474;10.768;2023-10-13T05:17:24;14.87;;;8.00;;
19985;SDS011;10154;52.474;10.768;2023-10-13T05:20:09;15.73;;;8.10;;
19985;SDS011;10154;52.474;10.768;2023-10-13T05:22:53;13.17;;;7.10;;
19985;SDS011;10154;52.474;10.768;2023-10-13T05:25:37;17.00;;;8.10;;
19985;SDS011;10154;52.474;10.768;2023-10-13T05:28:22;14.67;;;7.83;;
19985;SDS011;10154;52.474;10.768;2023-10-13T05:31:06;16.03;;;7.93;;
19985;SDS011;10154;52.474;10.768;2023-10-13T05:33:50;16.33;;;8.27;;
19985;SDS011;10154;52.474;10.768;2023-10-13T05:36:34;14.47;;;7.97;;
19985;SDS011;10154;52.474;10.768;2023-10-13T05:39:18;14.37;;;7.53;;
19985;SDS011;10154;52.474;10.768;2023-10-13T05:42:02;14.70;;;7.73;;
19985;SDS011;10154;52.474;10.768;2023-10-13T05:44:46;16.90;;;8.47;;
19985;SDS011;10154;52.474;10.768;2023-10-13T05:47:22;13.93;;;8.13;;
19985;SDS011;10154;52.474;10.768;2023-10-13T05:50:08;14.23;;;8.43;;
19985;SDS011;10154;52.474;10.768;2023-10-13T05:52:47;14.50;;;8.20;;
19985;SDS011;10154;52.474;10.768;2023-10-13T05:55:25;15.13;;;8.77;;
19985;SDS011;10154;52.474;10.768;2023-10-13T05:58:14;14.43;;;8.13;;
19985;SDS011;10154;52.474;10.768;2023-10-13T06:00:58;13.90;;;7.83;;
19985;SDS011;10154;52.474;10.768;2023-10-13T06:03:42;16.47;;;8.70;;
19985;SDS011;10154;52.474;10.768;2023-10-13T06:06:30;15.87;;;7.93;;
19985;SDS011;10154;52.474;10.768;2023-10-13T06:09:14;14.53;;;7.97;;
19985;SDS011;10154;52.474;10.768;2023-10-13T06:11:58;12.93;;;7.53;;
19985;SDS011;10154;52.474;10.768;2023-10-13T06:14:46;17.00;;;8.43;;
19985;SDS011;10154;52.474;10.768;2023-10-13T06:17:30;12.77;;;8.43;;
19985;SDS011;10154;52.474;10.768;2023-10-13T06:20:15;13.43;;;7.80;;
19985;SDS011;10154;52.474;10.768;2023-10-13T06:22:59;12.97;;;6.93;;
19985;SDS011;10154;52.474;10.768;2023-10-13T06:25:43;14.23;;;6.87;;
19985;SDS011;10154;52.474;10.768;2023-10-13T06:28:34;16.37;;;6.60;;
19985;SDS011;10154;52.474;10.768;2023-10-13T06:31:06;12.60;;;7.30;;
19985;SDS011;10154;52.474;10.768;2023-10-13T06:33:33;17.60;;;6.83;;
19985;SDS011;10154;52.474;10.768;2023-10-13T06:36:01;11.60;;;7.10;;
19985;SDS011;10154;52.474;10.768;2023-10-13T06:38:29;10.87;;;6.40;;
19985;SDS011;10154;52.474;10.768;2023-10-13T06:41:17;12.83;;;6.10;;
19985;SDS011;10154;52.474;10.768;2023-10-13T06:43:55;12.17;;;5.80;;
19985;SDS011;10154;52.474;10.768;2023-10-13T06:46:30;10.40;;;6.10;;
19985;SDS011;10154;52.474;10.768;2023-10-13T06:48:58;12.70;;;6.33;;
19985;SDS011;10154;52.474;10.768;2023-10-13T06:51:25;12.17;;;6.30;;
19985;SDS011;10154;52.474;10.768;2023-10-13T06:53:55;9.63;;;6.43;;
19985;SDS011;10154;52.474;10.768;2023-10-13T06:56:22;12.57;;;6.00;;
19985;SDS011;10154;52.474;10.768;2023-10-13T06:58:55;12.20;;;6.13;;
19985;SDS011;10154;52.474;10.768;2023-10-13T07:01:29;15.10;;;6.77;;
19985;SDS011;10154;52.474;10.768;2023-10-13T07:04:03;9.77;;;6.30;;
19985;SDS011;10154;52.474;10.768;2023-10-13T07:06:30;15.83;;;6.47;;
19985;SDS011;10154;52.474;10.768;2023-10-13T07:08:56;15.40;;;6.65;;
19985;SDS011;10154;52.474;10.768;2023-10-13T07:11:25;12.95;;;6.28;;
19985;SDS011;10154;52.474;10.768;2023-10-13T07:14:07;11.40;;;6.53;;
19985;SDS011;10154;52.474;10.768;2023-10-13T07:19:23;13.03;;;6.87;;
19985;SDS011;10154;52.474;10.768;2023-10-13T07:21:53;13.07;;;7.05;;
19985;SDS011;10154;52.474;10.768;2023-10-13T07:24:25;11.83;;;7.37;;
19985;SDS011;10154;52.474;10.768;2023-10-13T07:26:56;13.83;;;7.00;;
19985;SDS011;10154;52.474;10.768;2023-10-13T07:29:44;14.10;;;6.80;;
19985;SDS011;10154;52.474;10.768;2023-10-13T07:32:11;12.90;;;6.50;;
19985;SDS011;10154;52.474;10.768;2023-10-13T07:34:38;12.40;;;6.90;;
19985;SDS011;10154;52.474;10.768;2023-10-13T07:37:04;15.43;;;7.20;;
19985;SDS011;10154;52.474;10.768;2023-10-13T07:39:33;17.60;;;7.40;;
19985;SDS011;10154;52.474;10.768;2023-10-13T07:42:04;18.17;;;7.10;;
19985;SDS011;10154;52.474;10.768;2023-10-13T07:44:30;14.77;;;6.90;;
19985;SDS011;10154;52.474;10.768;2023-10-13T07:47:02;15.20;;;7.23;;
19985;SDS011;10154;52.474;10.768;2023-10-13T07:49:33;13.07;;;6.68;;
19985;SDS011;10154;52.474;10.768;2023-10-13T07:52:02;14.03;;;7.30;;
19985;SDS011;10154;52.474;10.768;2023-10-13T07:54:46;14.67;;;7.90;;
19985;SDS011;10154;52.474;10.768;2023-10-13T07:57:20;13.82;;;7.18;;
19985;SDS011;10154;52.474;10.768;2023-10-13T07:59:54;19.10;;;7.47;;
19985;SDS011;10154;52.474;10.768;2023-10-13T08:02:31;13.73;;;7.70;;
19985;SDS011;10154;52.474;10.768;2023-10-13T08:05:16;12.50;;;6.82;;
19985;SDS011;10154;52.474;10.768;2023-10-13T08:07:53;14.00;;;7.00;;
19985;SDS011;10154;52.474;10.768;2023-10-13T08:10:18;10.53;;;6.80;;
19985;SDS011;10154;52.474;10.768;2023-10-13T08:12:49;14.33;;;6.60;;
19985;SDS011;10154;52.474;10.768;2023-10-13T08:15:17;15.25;;;6.60;;
19985;SDS011;10154;52.474;10.768;2023-10-13T08:17:57;15.50;;;6.50;;
19985;SDS011;10154;52.474;10.768;2023-10-13T08:20:24;11.27;;;6.47;;
19985;SDS011;10154;52.474;10.768;2023-10-13T08:22:55;16.50;;;6.72;;
19985;SDS011;10154;52.474;10.768;2023-10-13T08:25:38;12.40;;;6.00;;
19985;SDS011;10154;52.474;10.768;2023-10-13T08:28:22;11.10;;;6.60;;
19985;SDS011;10154;52.474;10.768;2023-10-13T08:31:03;12.38;;;6.57;;
19985;SDS011;10154;52.474;10.768;2023-10-13T08:33:39;14.48;;;6.60;;
19985;SDS011;10154;52.474;10.768;2023-10-13T08:36:11;13.97;;;6.43;;
19985;SDS011;10154;52.474;10.768;2023-10-13T08:38:52;13.10;;;6.28;;
19985;SDS011;10154;52.474;10.768;2023-10-13T08:41:20;13.23;;;6.03;;
19985;SDS011;10154;52.474;10.768;2023-10-13T08:43:45;12.10;;;5.70;;
19985;SDS011;10154;52.474;10.768;2023-10-13T08:46:17;11.87;;;5.67;;
19985;SDS011;10154;52.474;10.768;2023-10-13T08:49:02;8.87;;;5.60;;
19985;SDS011;10154;52.474;10.768;2023-10-13T08:51:48;8.90;;;5.03;;
19985;SDS011;10154;52.474;10.768;2023-10-13T08:54:16;14.30;;;6.10;;
19985;SDS011;10154;52.474;10.768;2023-10-13T08:56:58;10.93;;;5.70;;
19985;SDS011;10154;52.474;10.768;2023-10-13T08:59:30;10.17;;;5.33;;
19985;SDS011;10154;52.474;10.768;2023-10-13T09:02:08;8.55;;;5.22;;
19985;SDS011;10154;52.474;10.768;2023-10-13T09:04:44;13.03;;;5.30;;
19985;SDS011;10154;52.474;10.768;2023-10-13T09:07:10;11.60;;;5.20;;
19985;SDS011;10154;52.474;10.768;2023-10-13T09:14:43;8.38;;;4.20;;
19985;SDS011;10154;52.474;10.768;2023-10-13T09:17:10;9.88;;;5.10;;
19985;SDS011;10154;52.474;10.768;2023-10-13T09:19:58;6.97;;;4.32;;
19985;SDS011;10154;52.474;10.768;2023-10-13T09:22:52;7.97;;;4.30;;
19985;SDS011;10154;52.474;10.768;2023-10-13T09:25:30;10.37;;;4.17;;
19985;SDS011;10154;52.474;10.768;2023-10-13T09:28:00;8.27;;;3.92;;
19985;SDS011;10154;52.474;10.768;2023-10-13T09:30:43;8.88;;;3.92;;
19985;SDS011;10154;52.474;10.768;2023-10-13T09:33:08;8.18;;;3.90;;
19985;SDS011;10154;52.474;10.768;2023-10-13T09:35:34;8.97;;;4.07;;
19985;SDS011;10154;52.474;10.768;2023-10-13T09:38:02;8.95;;;3.80;;
19985;SDS011;10154;52.474;10.768;2023-10-13T09:40:28;7.15;;;3.80;;
19985;SDS011;10154;52.474;10.768;2023-10-13T09:43:03;9.55;;;4.00;;
19985;SDS011;10154;52.474;10.768;2023-10-13T09:45:39;10.07;;;4.65;;
19985;SDS011;10154;52.474;10.768;2023-10-13T09:48:09;8.00;;;3.90;;
19985;SDS011;10154;52.474;10.768;2023-10-13T09:50:42;10.02;;;3.63;;
19985;SDS011;10154;52.474;10.768;2023-10-13T09:53:09;11.00;;;3.85;;
19985;SDS011;10154;52.474;10.768;2023-10-13T09:55:38;11.80;;;3.75;;
19985;SDS011;10154;52.474;10.768;2023-10-13T09:58:09;8.27;;;3.55;;
19985;SDS011;10154;52.474;10.768;2023-10-13T10:00:37;8.05;;;3.60;;
19985;SDS011;10154;52.474;10.768;2023-10-13T10:03:07;6.60;;;3.42;;
19985;SDS011;10154;52.474;10.768;2023-10-13T10:05:55;7.85;;;3.65;;
19985;SDS011;10154;52.474;10.768;2023-10-13T10:08:30;7.20;;;3.80;;
19985;SDS011;10154;52.474;10.768;2023-10-13T10:13:53;6.63;;;3.60;;
19985;SDS011;10154;52.474;10.768;2023-10-13T10:16:34;9.48;;;3.78;;
19985;SDS011;10154;52.474;10.768;2023-10-13T10:19:06;6.53;;;3.58;;
19985;SDS011;10154;52.474;10.768;2023-10-13T10:21:35;12.18;;;4.00;;
19985;SDS011;10154;52.474;10.768;2023-10-13T10:24:00;9.65;;;3.85;;
19985;SDS011;10154;52.474;10.768;2023-10-13T10:26:38;9.80;;;3.90;;
19985;SDS011;10154;52.474;10.768;2023-10-13T10:29:10;9.25;;;4.35;;
19985;SDS011;10154;52.474;10.768;2023-10-13T10:31:36;8.18;;;3.88;;
19985;SDS011;10154;52.474;10.768;2023-10-13T10:34:13;12.73;;;3.78;;
19985;SDS011;10154;52.474;10.768;2023-10-13T10:36:39;9.52;;;4.13;;
19985;SDS011;10154;52.474;10.768;2023-10-13T10:39:08;10.43;;;4.00;;
19985;SDS011;10154;52.474;10.768;2023-10-13T10:41:35;8.48;;;3.85;;
19985;SDS011;10154;52.474;10.768;2023-10-13T10:44:19;11.98;;;4.22;;
19985;SDS011;10154;52.474;10.768;2023-10-13T10:47:12;13.05;;;3.85;;
19985;SDS011;10154;52.474;10.768;2023-10-13T10:49:55;8.23;;;3.70;;
19985;SDS011;10154;52.474;10.768;2023-10-13T10:52:21;9.55;;;3.58;;
19985;SDS011;10154;52.474;10.768;2023-10-13T10:54:57;9.00;;;3.67;;
19985;SDS011;10154;52.474;10.768;2023-10-13T10:57:23;11.07;;;3.85;;
19985;SDS011;10154;52.474;10.768;2023-10-13T10:59:54;11.10;;;4.10;;
19985;SDS011;10154;52.474;10.768;2023-10-13T11:02:36;10.63;;;3.90;;
19985;SDS011;10154;52.474;10.768;2023-10-13T11:05:01;14.35;;;3.67;;
19985;SDS011;10154;52.474;10.768;2023-10-13T11:07:27;12.18;;;3.58;;
19985;SDS011;10154;52.474;10.768;2023-10-13T11:09:54;16.88;;;3.85;;
19985;SDS011;10154;52.474;10.768;2023-10-13T11:12:32;8.38;;;3.65;;
19985;SDS011;10154;52.474;10.768;2023-10-13T11:14:59;14.75;;;3.72;;
19985;SDS011;10154;52.474;10.768;2023-10-13T11:17:26;16.13;;;4.38;;
19985;SDS011;10154;52.474;10.768;2023-10-13T11:19:58;11.32;;;4.10;;
19985;SDS011;10154;52.474;10.768;2023-10-13T11:22:40;13.52;;;4.05;;
19985;SDS011;10154;52.474;10.768;2023-10-13T11:25:19;15.75;;;4.30;;
19985;SDS011;10154;52.474;10.768;2023-10-13T11:28:11;13.88;;;3.78;;
19985;SDS011;10154;52.474;10.768;2023-10-13T11:30:42;14.80;;;3.90;;
19985;SDS011;10154;52.474;10.768;2023-10-13T11:33:14;10.10;;;4.03;;
19985;SDS011;10154;52.474;10.768;2023-10-13T11:35:44;14.77;;;3.55;;
19985;SDS011;10154;52.474;10.768;2023-10-13T11:38:36;16.42;;;4.03;;
19985;SDS011;10154;52.474;10.768;2023-10-13T11:41:14;8.93;;;3.72;;
19985;SDS011;10154;52.474;10.768;2023-10-13T11:46:09;16.88;;;4.38;;
19985;SDS011;10154;52.474;10.768;2023-10-13T11:48:35;11.88;;;3.63;;
19985;SDS011;10154;52.474;10.768;2023-10-13T11:51:11;16.77;;;4.22;;
19985;SDS011;10154;52.474;10.768;2023-10-13T11:53:49;14.70;;;4.18;;
19985;SDS011;10154;52.474;10.768;2023-10-13T11:56:17;16.40;;;3.95;;
19985;SDS011;10154;52.474;10.768;2023-10-13T11:58:45;12.40;;;4.20;;
19985;SDS011;10154;52.474;10.768;2023-10-13T12:01:11;16.20;;;4.20;;
19985;SDS011;10154;52.474;10.768;2023-10-13T12:03:40;15.80;;;4.32;;
19985;SDS011;10154;52.474;10.768;2023-10-13T12:06:27;19.55;;;4.30;;
19985;SDS011;10154;52.474;10.768;2023-10-13T12:09:02;20.48;;;4.30;;
19985;SDS011;10154;52.474;10.768;2023-10-13T12:11:44;15.98;;;4.55;;
19985;SDS011;10154;52.474;10.768;2023-10-13T12:14:16;13.23;;;3.67;;
19985;SDS011;10154;52.474;10.768;2023-10-13T12:16:42;15.77;;;3.75;;
19985;SDS011;10154;52.474;10.768;2023-10-13T12:19:24;13.80;;;4.05;;
19985;SDS011;10154;52.474;10.768;2023-10-13T12:21:52;10.18;;;3.72;;
19985;SDS011;10154;52.474;10.768;2023-10-13T12:24:28;12.05;;;4.10;;
19985;SDS011;10154;52.474;10.768;2023-10-13T12:27:16;19.23;;;3.95;;
19985;SDS011;10154;52.474;10.768;2023-10-13T12:29:47;13.07;;;3.90;;
19985;SDS011;10154;52.474;10.768;2023-10-13T12:32:13;10.48;;;3.75;;
19985;SDS011;10154;52.474;10.768;2023-10-13T12:34:40;16.30;;;4.32;;
19985;SDS011;10154;52.474;10.768;2023-10-13T12:37:25;17.67;;;4.20;;
19985;SDS011;10154;52.474;10.768;2023-10-13T12:40:03;12.35;;;4.00;;
19985;SDS011;10154;52.474;10.768;2023-10-13T12:42:48;18.10;;;4.78;;
19985;SDS011;10154;52.474;10.768;2023-10-13T12:45:32;22.45;;;4.05;;
19985;SDS011;10154;52.474;10.768;2023-10-13T12:48:15;13.35;;;4.32;;
19985;SDS011;10154;52.474;10.768;2023-10-13T12:51:02;15.10;;;4.53;;
19985;SDS011;10154;52.474;10.768;2023-10-13T12:56:13;15.10;;;3.92;;
19985;SDS011;10154;52.474;10.768;2023-10-13T12:58:38;16.38;;;4.22;;
19985;SDS011;10154;52.474;10.768;2023-10-13T13:01:03;12.25;;;3.97;;
19985;SDS011;10154;52.474;10.768;2023-10-13T13:03:31;15.18;;;4.65;;
19985;SDS011;10154;52.474;10.768;2023-10-13T13:05:57;18.65;;;4.40;;
19985;SDS011;10154;52.474;10.768;2023-10-13T13:08:23;18.27;;;4.47;;
19985;SDS011;10154;52.474;10.768;2023-10-13T13:10:49;15.40;;;4.53;;
19985;SDS011;10154;52.474;10.768;2023-10-13T13:13:15;12.88;;;4.60;;
19985;SDS011;10154;52.474;10.768;2023-10-13T13:15:42;16.02;;;4.22;;
19985;SDS011;10154;52.474;10.768;2023-10-13T13:18:07;18.38;;;4.60;;
19985;SDS011;10154;52.474;10.768;2023-10-13T13:20:39;17.45;;;4.32;;
19985;SDS011;10154;52.474;10.768;2023-10-13T13:23:04;14.15;;;4.95;;
19985;SDS011;10154;52.474;10.768;2023-10-13T13:25:30;17.10;;;4.32;;
19985;SDS011;10154;52.474;10.768;2023-10-13T13:27:56;18.67;;;4.32;;
19985;SDS011;10154;52.474;10.768;2023-10-13T13:30:24;16.30;;;4.43;;
19985;SDS011;10154;52.474;10.768;2023-10-13T13:32:55;15.07;;;4.15;;
19985;SDS011;10154;52.474;10.768;2023-10-13T13:35:20;15.18;;;4.65;;
19985;SDS011;10154;52.474;10.768;2023-10-13T13:37:46;15.32;;;4.60;;
19985;SDS011;10154;52.474;10.768;2023-10-13T13:40:11;17.63;;;4.20;;
19985;SDS011;10154;52.474;10.768;2023-10-13T13:42:43;14.23;;;4.05;;
19985;SDS011;10154;52.474;10.768;2023-10-13T13:45:16;19.30;;;4.93;;
19985;SDS011;10154;52.474;10.768;2023-10-13T13:48:02;17.50;;;4.15;;
19985;SDS011;10154;52.474;10.768;2023-10-13T13:50:33;15.50;;;4.38;;
19985;SDS011;10154;52.474;10.768;2023-10-13T13:53:03;19.02;;;4.55;;
19985;SDS011;10154;52.474;10.768;2023-10-13T13:55:34;14.10;;;4.38;;
19985;SDS011;10154;52.474;10.768;2023-10-13T13:58:00;13.40;;;4.88;;
19985;SDS011;10154;52.474;10.768;2023-10-13T14:00:25;18.48;;;4.50;;
19985;SDS011;10154;52.474;10.768;2023-10-13T14:03:11;17.83;;;4.75;;
19985;SDS011;10154;52.474;10.768;2023-10-13T14:05:56;20.45;;;5.13;;
19985;SDS011;10154;52.474;10.768;2023-10-13T14:08:24;16.50;;;4.65;;
19985;SDS011;10154;52.474;10.768;2023-10-13T14:10:50;16.60;;;4.25;;
19985;SDS011;10154;52.474;10.768;2023-10-13T14:13:40;16.95;;;4.65;;
19985;SDS011;10154;52.474;10.768;2023-10-13T14:16:15;19.17;;;4.70;;
19985;SDS011;10154;52.474;10.768;2023-10-13T14:18:44;17.08;;;4.60;;
19985;SDS011;10154;52.474;10.768;2023-10-13T14:21:10;19.20;;;4.20;;
19985;SDS011;10154;52.474;10.768;2023-10-13T14:23:36;11.48;;;4.55;;
19985;SDS011;10154;52.474;10.768;2023-10-13T14:26:01;15.05;;;4.88;;
19985;SDS011;10154;52.474;10.768;2023-10-13T14:28:26;14.20;;;4.80;;
19985;SDS011;10154;52.474;10.768;2023-10-13T14:31:03;15.60;;;4.53;;
19985;SDS011;10154;52.474;10.768;2023-10-13T14:33:34;19.38;;;4.72;;
19985;SDS011;10154;52.474;10.768;2023-10-13T14:36:02;18.67;;;4.85;;
19985;SDS011;10154;52.474;10.768;2023-10-13T14:38:29;12.75;;;4.97;;
19985;SDS011;10154;52.474;10.768;2023-10-13T14:40:56;17.35;;;4.57;;
19985;SDS011;10154;52.474;10.768;2023-10-13T14:43:22;16.90;;;4.88;;
19985;SDS011;10154;52.474;10.768;2023-10-13T14:45:52;13.73;;;4.90;;
19985;SDS011;10154;52.474;10.768;2023-10-13T14:48:18;14.40;;;4.55;;
19985;SDS011;10154;52.474;10.768;2023-10-13T14:50:43;15.20;;;4.47;;
19985;SDS011;10154;52.474;10.768;2023-10-13T14:53:10;16.08;;;4.68;;
19985;SDS011;10154;52.474;10.768;2023-10-13T14:55:35;13.68;;;4.40;;
19985;SDS011;10154;52.474;10.768;2023-10-13T14:58:03;17.15;;;5.00;;
19985;SDS011;10154;52.474;10.768;2023-10-13T15:00:41;23.15;;;4.60;;
19985;SDS011;10154;52.474;10.768;2023-10-13T15:03:10;11.48;;;4.47;;
19985;SDS011;10154;52.474;10.768;2023-10-13T15:05:39;13.60;;;4.53;;
19985;SDS011;10154;52.474;10.768;2023-10-13T15:08:04;14.13;;;4.40;;
19985;SDS011;10154;52.474;10.768;2023-10-13T15:10:31;15.18;;;4.07;;
19985;SDS011;10154;52.474;10.768;2023-10-13T15:12:57;13.38;;;4.72;;
19985;SDS011;10154;52.474;10.768;2023-10-13T15:15:24;9.85;;;4.53;;
19985;SDS011;10154;52.474;10.768;2023-10-13T15:21:05;16.45;;;4.80;;
19985;SDS011;10154;52.474;10.768;2023-10-13T15:23:33;14.27;;;5.15;;
19985;SDS011;10154;52.474;10.768;2023-10-13T15:26:07;16.27;;;4.80;;
19985;SDS011;10154;52.474;10.768;2023-10-13T15:28:36;10.40;;;4.45;;
19985;SDS011;10154;52.474;10.768;2023-10-13T15:31:13;17.77;;;4.70;;
19985;SDS011;10154;52.474;10.768;2023-10-13T15:33:51;18.27;;;5.40;;
19985;SDS011;10154;52.474;10.768;2023-10-13T15:36:17;14.82;;;4.50;;
19985;SDS011;10154;52.474;10.768;2023-10-13T15:38:44;18.60;;;4.78;;
19985;SDS011;10154;52.474;10.768;2023-10-13T15:41:11;19.60;;;5.13;;
19985;SDS011;10154;52.474;10.768;2023-10-13T15:43:37;13.35;;;5.10;;
19985;SDS011;10154;52.474;10.768;2023-10-13T15:46:08;12.25;;;5.00;;
19985;SDS011;10154;52.474;10.768;2023-10-13T15:48:40;15.02;;;4.75;;
19985;SDS011;10154;52.474;10.768;2023-10-13T15:51:09;22.33;;;5.60;;
19985;SDS011;10154;52.474;10.768;2023-10-13T15:53:37;16.20;;;4.90;;
19985;SDS011;10154;52.474;10.768;2023-10-13T15:56:03;16.23;;;4.90;;
19985;SDS011;10154;52.474;10.768;2023-10-13T15:58:31;19.10;;;5.63;;
19985;SDS011;10154;52.474;10.768;2023-10-13T16:00:56;13.98;;;4.55;;
19985;SDS011;10154;52.474;10.768;2023-10-13T16:03:23;20.98;;;5.38;;
19985;SDS011;10154;52.474;10.768;2023-10-13T16:05:52;14.70;;;5.18;;
19985;SDS011;10154;52.474;10.768;2023-10-13T16:08:17;21.50;;;5.40;;
19985;SDS011;10154;52.474;10.768;2023-10-13T16:10:43;19.27;;;4.43;;
19985;SDS011;10154;52.474;10.768;2023-10-13T16:13:09;14.05;;;4.78;;
19985;SDS011;10154;52.474;10.768;2023-10-13T16:15:40;18.88;;;5.10;;
19985;SDS011;10154;52.474;10.768;2023-10-13T16:18:07;18.92;;;5.43;;
19985;SDS011;10154;52.474;10.768;2023-10-13T16:20:35;16.15;;;5.32;;